Time;durP1;ratioP1;P1;durP2;ratioP2;P2;SDS_P1;SDS_P2;PMS_P1;PMS_P2;Temp;Humidity;BMP_temperature;BMP_pressure;BME280_temperature;BME280_humidity;BME280_pressure;Samples;Min_cycle;Max_cycle;Signal;HPM_P1;HPM_P2
2021/06/06 00:00:36;;;;;;;35.87;17.27;;;13.30;99.90;;;;;;5074698;28;20597;-77
2021/06/06 00:03:06;;;;;;;35.87;17.93;;;13.20;99.90;;;;;;5075052;28;20260;-78
2021/06/06 00:05:41;;;;;;;31.73;17.60;;;13.30;99.90;;;;;;5075168;28;20302;-76
2021/06/06 00:08:07;;;;;;;30.13;17.77;;;13.30;99.90;;;;;;5075093;28;20219;-76
2021/06/06 00:10:34;;;;;;;31.67;18.87;;;13.30;99.90;;;;;;5074880;28;20354;-76
2021/06/06 00:13:00;;;;;;;34.27;17.77;;;13.20;99.90;;;;;;5075048;28;20645;-77
2021/06/06 00:15:28;;;;;;;31.57;18.87;;;13.20;99.90;;;;;;5074778;28;20195;-77
2021/06/06 00:17:55;;;;;;;32.03;18.10;;;13.20;99.90;;;;;;5075281;28;20234;-76
2021/06/06 00:20:21;;;;;;;32.27;18.43;;;13.20;99.90;;;;;;5075182;28;20218;-77
2021/06/06 00:22:47;;;;;;;33.17;18.27;;;13.20;99.90;;;;;;5074672;28;20199;-77
2021/06/06 00:25:15;;;;;;;30.40;18.63;;;13.20;99.90;;;;;;5074776;28;20287;-77
2021/06/06 00:27:41;;;;;;;29.07;17.93;;;13.00;99.90;;;;;;5074611;28;20760;-77
2021/06/06 00:30:10;;;;;;;33.80;19.47;;;12.90;99.90;;;;;;5074910;28;20330;-76
2021/06/06 00:32:39;;;;;;;30.23;17.93;;;12.90;99.90;;;;;;5074808;28;20207;-76
2021/06/06 00:35:08;;;;;;;29.53;18.20;;;12.90;99.90;;;;;;5074411;28;20223;-76
2021/06/06 00:37:34;;;;;;;31.30;18.47;;;12.90;99.90;;;;;;5074437;28;20617;-76
2021/06/06 00:40:01;;;;;;;32.57;18.80;;;13.00;99.90;;;;;;5074309;28;21476;-76
2021/06/06 00:42:28;;;;;;;36.97;18.27;;;13.00;99.90;;;;;;5074395;28;20192;-76
2021/06/06 00:44:54;;;;;;;38.67;18.53;;;13.00;99.90;;;;;;5074148;28;20290;-77
2021/06/06 00:47:23;;;;;;;37.07;19.07;;;13.00;99.90;;;;;;5074319;28;20313;-77
2021/06/06 00:49:51;;;;;;;36.23;19.47;;;13.00;99.90;;;;;;5074599;28;20218;-76
2021/06/06 00:52:19;;;;;;;34.93;20.03;;;13.10;99.90;;;;;;5074076;28;20282;-76
2021/06/06 00:54:48;;;;;;;33.97;19.57;;;13.00;99.90;;;;;;5074202;28;20282;-76
2021/06/06 00:57:21;;;;;;;40.73;19.97;;;13.20;99.90;;;;;;5074186;28;20199;-76
2021/06/06 00:59:54;;;;;;;31.50;19.00;;;13.20;99.90;;;;;;5074252;28;20584;-76
2021/06/06 01:02:21;;;;;;;33.53;19.33;;;13.10;99.90;;;;;;5074145;28;20202;-76
2021/06/06 01:04:47;;;;;;;41.50;21.53;;;13.20;99.90;;;;;;5074089;28;20661;-76
2021/06/06 01:07:15;;;;;;;36.23;20.60;;;13.20;99.90;;;;;;5073915;28;20285;-77
2021/06/06 01:09:41;;;;;;;37.97;21.63;;;13.20;99.90;;;;;;5074133;28;20199;-76
2021/06/06 01:12:16;;;;;;;37.63;21.40;;;13.30;99.90;;;;;;5072627;28;20227;-77
2021/06/06 01:14:46;;;;;;;39.03;20.87;;;13.20;99.90;;;;;;5074042;28;20233;-77
2021/06/06 01:17:18;;;;;;;36.70;21.50;;;13.10;99.90;;;;;;5073627;28;20282;-76
2021/06/06 01:19:49;;;;;;;46.50;22.27;;;13.10;99.90;;;;;;5073990;28;20191;-76
2021/06/06 01:22:37;;;;;;;41.77;21.67;;;13.00;99.90;;;;;;5053828;28;20224;-76
2021/06/06 01:25:11;;;;;;;40.67;22.20;;;13.00;99.90;;;;;;5053928;28;20283;-77
2021/06/06 01:27:41;;;;;;;44.67;23.67;;;12.90;99.90;;;;;;5053106;28;20226;-76
2021/06/06 01:30:12;;;;;;;46.43;22.93;;;12.90;99.90;;;;;;5053576;28;20313;-76
2021/06/06 01:32:43;;;;;;;43.30;22.60;;;12.90;99.90;;;;;;5053745;28;20249;-76
2021/06/06 01:35:13;;;;;;;38.07;21.07;;;12.90;99.90;;;;;;5053784;28;20681;-77
2021/06/06 01:37:46;;;;;;;45.97;22.17;;;12.80;99.90;;;;;;5053863;28;20208;-78
2021/06/06 01:40:17;;;;;;;47.40;23.93;;;12.80;99.90;;;;;;5053801;28;20204;-76
2021/06/06 01:42:47;;;;;;;44.40;23.57;;;12.80;99.90;;;;;;5054213;28;20254;-77
2021/06/06 01:45:17;;;;;;;47.87;24.57;;;12.80;99.90;;;;;;5055668;28;20203;-77
2021/06/06 01:47:47;;;;;;;48.47;25.37;;;12.70;99.90;;;;;;5055820;28;20287;-76
2021/06/06 01:50:20;;;;;;;44.63;23.57;;;12.70;99.90;;;;;;5054835;28;20197;-76
2021/06/06 01:52:48;;;;;;;56.43;26.13;;;12.80;99.90;;;;;;5054907;28;20284;-76
2021/06/06 01:55:19;;;;;;;49.80;24.43;;;12.70;99.90;;;;;;5054742;28;20230;-76
2021/06/06 01:57:47;;;;;;;64.10;25.33;;;12.70;99.90;;;;;;5053762;28;20280;-76
2021/06/06 02:00:24;;;;;;;57.87;27.50;;;12.70;99.90;;;;;;5053882;28;20526;-77
2021/06/06 02:02:50;;;;;;;57.63;26.57;;;12.60;99.90;;;;;;5053934;28;20323;-76
2021/06/06 02:05:18;;;;;;;56.17;24.47;;;12.60;99.90;;;;;;5062865;28;20321;-76
2021/06/06 02:07:47;;;;;;;53.47;26.90;;;12.50;99.90;;;;;;5054879;28;20523;-77
2021/06/06 02:10:25;;;;;;;56.80;26.27;;;12.40;99.90;;;;;;5069076;28;20278;-76
2021/06/06 02:12:57;;;;;;;54.10;25.23;;;12.30;99.90;;;;;;5064625;28;20281;-77
2021/06/06 02:15:26;;;;;;;51.27;25.77;;;12.40;99.90;;;;;;5069012;28;20656;-77
2021/06/06 02:17:55;;;;;;;64.03;27.87;;;12.40;99.90;;;;;;5064306;28;20200;-76
2021/06/06 02:20:23;;;;;;;64.93;27.63;;;12.40;99.90;;;;;;5068544;28;20314;-76
2021/06/06 02:22:50;;;;;;;63.47;28.80;;;12.30;99.90;;;;;;5063868;28;20278;-76
2021/06/06 02:25:19;;;;;;;67.33;28.40;;;12.30;99.90;;;;;;5067232;28;20271;-76
2021/06/06 02:27:49;;;;;;;56.60;27.07;;;12.30;99.90;;;;;;5065822;28;20309;-77
2021/06/06 02:30:20;;;;;;;55.97;27.40;;;12.30;99.90;;;;;;5063150;28;20638;-76
2021/06/06 02:32:56;;;;;;;58.70;27.53;;;12.30;99.90;;;;;;5052880;28;20209;-76
2021/06/06 02:35:26;;;;;;;61.93;27.47;;;12.30;99.90;;;;;;5052821;28;20240;-76
2021/06/06 02:37:57;;;;;;;55.27;27.47;;;12.30;99.90;;;;;;5052398;28;20287;-75
2021/06/06 02:40:30;;;;;;;60.30;27.90;;;12.20;99.90;;;;;;5052076;28;20250;-76
2021/06/06 02:43:01;;;;;;;55.87;27.47;;;12.20;99.90;;;;;;5052597;28;20222;-76
2021/06/06 02:45:30;;;;;;;69.30;31.37;;;12.20;99.90;;;;;;5052040;28;20662;-76
2021/06/06 02:48:00;;;;;;;61.00;30.67;;;12.20;99.90;;;;;;5052081;28;20254;-77
2021/06/06 02:50:30;;;;;;;62.53;28.93;;;12.20;99.90;;;;;;5051874;28;20216;-76
2021/06/06 02:53:00;;;;;;;79.10;31.47;;;12.20;99.90;;;;;;5052511;28;20290;-75
2021/06/06 02:55:31;;;;;;;75.13;33.80;;;12.20;99.90;;;;;;5052384;28;20333;-75
2021/06/06 02:58:02;;;;;;;71.30;31.37;;;12.20;99.90;;;;;;5052157;28;20648;-77
2021/06/06 03:00:32;;;;;;;67.97;32.43;;;12.20;99.90;;;;;;5051933;28;20205;-76
2021/06/06 03:03:04;;;;;;;79.60;33.53;;;12.20;99.90;;;;;;5052091;28;20219;-77
2021/06/06 03:05:31;;;;;;;76.83;33.73;;;12.20;99.90;;;;;;5052090;28;20228;-75
2021/06/06 03:08:00;;;;;;;71.93;31.53;;;12.10;99.90;;;;;;5051822;28;20765;-76
2021/06/06 03:10:31;;;;;;;73.77;34.07;;;12.10;99.90;;;;;;5052046;28;20279;-76
2021/06/06 03:13:04;;;;;;;71.90;32.40;;;12.10;99.90;;;;;;5052065;28;20579;-76
2021/06/06 03:15:35;;;;;;;81.43;33.47;;;12.10;99.90;;;;;;5052304;28;20312;-76
2021/06/06 03:18:03;;;;;;;84.73;35.43;;;12.10;99.90;;;;;;5051706;28;20287;-75
2021/06/06 03:20:33;;;;;;;70.63;32.83;;;12.10;99.90;;;;;;5052149;28;20295;-76
2021/06/06 03:23:01;;;;;;;77.70;34.37;;;12.10;99.90;;;;;;5051763;28;20218;-76
2021/06/06 03:25:37;;;;;;;89.13;36.27;;;12.00;99.90;;;;;;5052240;28;20228;-76
2021/06/06 03:28:04;;;;;;;81.37;33.93;;;12.00;99.90;;;;;;5052182;28;20277;-77
2021/06/06 03:30:35;;;;;;;82.43;35.60;;;12.10;99.90;;;;;;5052167;28;20220;-76
2021/06/06 03:33:05;;;;;;;100.27;37.77;;;12.00;99.90;;;;;;5052329;28;20227;-76
2021/06/06 03:35:31;;;;;;;104.90;37.70;;;12.00;99.90;;;;;;5054312;28;20188;-77
2021/06/06 03:37:58;;;;;;;96.83;38.17;;;12.00;99.90;;;;;;5055901;28;20196;-76
2021/06/06 03:40:27;;;;;;;96.27;38.30;;;12.00;99.90;;;;;;5055873;28;20663;-76
2021/06/06 03:42:55;;;;;;;94.17;37.27;;;12.00;99.90;;;;;;5055600;28;20633;-75
2021/06/06 03:45:22;;;;;;;100.50;37.47;;;12.00;99.90;;;;;;5055403;28;20192;-76
2021/06/06 03:47:49;;;;;;;95.97;36.77;;;12.10;99.90;;;;;;5055786;28;20248;-76
2021/06/06 03:50:18;;;;;;;101.90;38.73;;;12.10;99.90;;;;;;5055579;28;20196;-76
2021/06/06 03:52:44;;;;;;;105.60;37.33;;;12.10;99.90;;;;;;5055393;28;20285;-77
2021/06/06 03:55:14;;;;;;;85.97;36.63;;;12.20;99.90;;;;;;5055466;28;20286;-75
2021/06/06 03:57:41;;;;;;;84.77;34.97;;;12.30;99.90;;;;;;5055176;28;20224;-75
2021/06/06 04:00:14;;;;;;;98.53;40.00;;;12.40;99.90;;;;;;5055721;28;20620;-77
2021/06/06 04:02:41;;;;;;;93.40;37.47;;;12.40;99.90;;;;;;5055672;28;20201;-76
2021/06/06 04:05:08;;;;;;;95.53;39.43;;;12.40;99.90;;;;;;5055427;28;20223;-75
2021/06/06 04:07:34;;;;;;;91.47;39.40;;;12.50;99.90;;;;;;5055053;28;20279;-77
2021/06/06 04:10:01;;;;;;;94.57;40.67;;;12.60;99.90;;;;;;5055310;28;20605;-77
2021/06/06 04:12:28;;;;;;;89.47;39.40;;;12.70;99.90;;;;;;5052853;28;20235;-76
2021/06/06 04:14:54;;;;;;;82.57;37.60;;;12.80;99.90;;;;;;5042494;28;20197;-75
2021/06/06 04:17:22;;;;;;;70.07;35.63;;;12.90;99.90;;;;;;5039292;28;20200;-75
2021/06/06 04:19:48;;;;;;;73.43;35.10;;;13.00;99.90;;;;;;5063956;28;20590;-76
2021/06/06 04:22:15;;;;;;;70.20;36.00;;;13.20;99.90;;;;;;5059960;28;20196;-75
2021/06/06 04:24:41;;;;;;;65.87;34.37;;;13.30;99.90;;;;;;5063219;28;20230;-75
2021/06/06 04:27:08;;;;;;;64.17;34.00;;;13.40;99.90;;;;;;5060787;28;20203;-75
2021/06/06 04:29:34;;;;;;;58.60;32.10;;;13.50;99.90;;;;;;5061329;28;20314;-77
2021/06/06 04:32:04;;;;;;;54.90;32.47;;;13.70;99.90;;;;;;5056807;28;20211;-76
2021/06/06 04:34:34;;;;;;;55.83;31.77;;;13.90;99.90;;;;;;5057165;28;20207;-75
2021/06/06 04:37:01;;;;;;;54.00;30.47;;;14.10;99.90;;;;;;5056026;28;20239;-76
2021/06/06 04:39:27;;;;;;;41.43;27.33;;;14.70;99.90;;;;;;5053831;28;20283;-75
2021/06/06 04:41:54;;;;;;;44.00;26.57;;;15.40;99.90;;;;;;5056881;28;20192;-76
2021/06/06 04:44:20;;;;;;;30.23;21.97;;;16.10;99.90;;;;;;5073064;28;20198;-76
2021/06/06 04:46:46;;;;;;;28.27;22.00;;;17.00;99.90;;;;;;5071276;28;20227;-76
2021/06/06 04:49:13;;;;;;;24.10;19.37;;;18.00;99.90;;;;;;5072100;28;20280;-76
2021/06/06 04:51:41;;;;;;;22.43;18.80;;;18.90;99.90;;;;;;5073038;28;20231;-77
2021/06/06 04:54:07;;;;;;;23.17;18.67;;;19.80;99.90;;;;;;5070498;28;20254;-76
2021/06/06 04:56:33;;;;;;;21.07;17.77;;;20.80;99.90;;;;;;5072901;28;20196;-76
2021/06/06 04:59:00;;;;;;;20.30;17.33;;;21.70;99.90;;;;;;5070851;28;20323;-78
2021/06/06 05:01:26;;;;;;;20.02;16.52;;;22.60;99.90;;;;;;5072639;28;20214;-76
2021/06/06 05:03:53;;;;;;;20.17;16.75;;;23.50;99.90;;;;;;5070427;28;20287;-76
2021/06/06 05:06:20;;;;;;;20.77;16.10;;;24.30;99.90;;;;;;5072281;28;20196;-76
2021/06/06 05:08:48;;;;;;;20.17;16.17;;;24.90;99.90;;;;;;5071568;28;20302;-76
2021/06/06 05:11:15;;;;;;;20.85;16.73;;;25.00;99.90;;;;;;5071245;28;20278;-76
2021/06/06 05:13:42;;;;;;;21.30;17.60;;;24.70;99.90;;;;;;5072657;28;20229;-77
2021/06/06 05:16:09;;;;;;;22.15;17.80;;;24.10;99.90;;;;;;5074029;28;20203;-76
2021/06/06 05:18:36;;;;;;;20.75;18.33;;;23.50;99.90;;;;;;5067695;28;20228;-77
2021/06/06 05:21:03;;;;;;;26.67;19.13;;;22.70;99.90;;;;;;5053287;28;20230;-76
2021/06/06 05:23:33;;;;;;;21.70;19.17;;;22.30;99.90;;;;;;5053746;28;20283;-75
2021/06/06 05:26:01;;;;;;;24.73;19.23;;;22.70;99.90;;;;;;5054123;28;20298;-76
2021/06/06 05:28:31;;;;;;;24.83;19.45;;;23.70;99.90;;;;;;5049750;28;20862;-76
2021/06/06 05:30:59;;;;;;;24.15;20.05;;;25.00;99.90;;;;;;5052513;28;20271;-76
2021/06/06 05:33:25;;;;;;;26.02;18.70;;;26.20;99.90;;;;;;5052814;28;20330;-76
2021/06/06 05:35:52;;;;;;;23.90;18.80;;;27.30;99.90;;;;;;5052841;28;20291;-76
2021/06/06 05:38:20;;;;;;;23.40;18.38;;;28.40;99.90;;;;;;5053592;28;20269;-77
2021/06/06 05:40:46;;;;;;;21.48;18.67;;;29.40;99.90;;;;;;5053014;28;20210;-77
2021/06/06 05:43:17;;;;;;;24.02;19.00;;;30.10;99.90;;;;;;5053088;28;20571;-76
2021/06/06 05:45:43;;;;;;;22.85;19.45;;;30.00;99.90;;;;;;5053309;28;20559;-74
2021/06/06 05:48:10;;;;;;;20.50;18.10;;;29.80;99.90;;;;;;5045244;28;20312;-73
2021/06/06 05:50:39;;;;;;;24.27;19.00;;;30.00;99.90;;;;;;5052934;28;20418;-74
2021/06/06 05:53:06;;;;;;;20.17;17.73;;;30.60;99.90;;;;;;5041748;28;20243;-75
2021/06/06 05:55:33;;;;;;;21.55;18.27;;;30.90;99.90;;;;;;5033115;28;20206;-74
2021/06/06 05:57:59;;;;;;;20.50;18.30;;;30.90;99.90;;;;;;5032063;28;20288;-74
2021/06/06 06:00:29;;;;;;;22.48;18.13;;;31.60;99.90;;;;;;5033181;28;20224;-74
2021/06/06 06:02:56;;;;;;;21.95;19.00;;;32.30;99.90;;;;;;5032909;28;20407;-74
2021/06/06 06:05:22;;;;;;;22.42;19.20;;;33.20;99.90;;;;;;5032824;28;20228;-75
2021/06/06 06:07:50;;;;;;;19.73;17.25;;;34.00;99.90;;;;;;5032349;28;20195;-74
2021/06/06 06:10:21;;;;;;;21.52;17.25;;;34.60;99.90;;;;;;5032950;28;20192;-75
2021/06/06 06:12:47;;;;;;;23.10;19.85;;;34.60;99.90;;;;;;5032656;28;20613;-75
2021/06/06 06:15:15;;;;;;;19.58;17.10;;;35.40;99.90;;;;;;5047578;28;20291;-75
2021/06/06 06:17:43;;;;;;;18.27;15.90;;;35.40;98.50;;;;;;5052101;28;20200;-74
2021/06/06 06:20:12;;;;;;;17.92;16.02;;;35.10;97.60;;;;;;5052390;28;20216;-75
2021/06/06 06:22:39;;;;;;;21.95;18.50;;;35.50;98.50;;;;;;5055630;28;20198;-74
2021/06/06 06:25:07;;;;;;;17.80;15.95;;;36.30;97.00;;;;;;5072083;28;20223;-74
2021/06/06 06:27:33;;;;;;;19.60;17.40;;;36.90;96.40;;;;;;5072423;28;20218;-75
2021/06/06 06:30:00;;;;;;;20.77;18.63;;;37.60;96.10;;;;;;5053592;28;20319;-74
2021/06/06 06:32:29;;;;;;;20.92;17.05;;;37.80;94.60;;;;;;5070606;28;20196;-75
2021/06/06 06:34:56;;;;;;;18.58;16.67;;;38.00;94.20;;;;;;5072365;28;20192;-75
2021/06/06 06:37:25;;;;;;;17.10;15.50;;;37.80;92.90;;;;;;5071717;28;20340;-75
2021/06/06 06:39:52;;;;;;;19.15;16.30;;;37.90;93.10;;;;;;5071976;28;20214;-75
2021/06/06 06:42:18;;;;;;;18.98;16.98;;;38.10;92.60;;;;;;5071879;28;20307;-75
2021/06/06 06:44:44;;;;;;;19.42;17.52;;;38.40;92.00;;;;;;5067430;28;20290;-76
2021/06/06 06:47:11;;;;;;;19.45;17.45;;;38.40;91.40;;;;;;5061122;28;20215;-77
2021/06/06 06:49:37;;;;;;;19.35;17.35;;;37.70;91.40;;;;;;5060944;28;20791;-75
2021/06/06 06:52:06;;;;;;;17.98;16.10;;;37.80;92.30;;;;;;5061264;28;20212;-76
2021/06/06 06:54:33;;;;;;;16.20;14.50;;;37.70;90.90;;;;;;5061458;28;20214;-75
2021/06/06 06:56:59;;;;;;;17.10;15.18;;;37.20;91.70;;;;;;5056617;28;20227;-75
2021/06/06 06:59:27;;;;;;;15.10;13.60;;;37.60;91.30;;;;;;5067553;28;20701;-75
2021/06/06 07:01:55;;;;;;;16.60;14.43;;;35.90;90.50;;;;;;5063524;28;20681;-75
2021/06/06 07:04:21;;;;;;;17.85;16.00;;;35.70;90.90;;;;;;5053046;28;20662;-76
2021/06/06 07:06:49;;;;;;;15.20;13.57;;;33.50;90.50;;;;;;5052685;28;20237;-76
2021/06/06 07:09:17;;;;;;;15.23;13.50;;;33.60;93.30;;;;;;5054365;28;20243;-75
2021/06/06 07:11:44;;;;;;;15.60;13.93;;;34.90;92.60;;;;;;5067809;28;20274;-76
2021/06/06 07:14:10;;;;;;;15.48;13.80;;;35.30;91.40;;;;;;5070284;28;20226;-75
2021/06/06 07:16:38;;;;;;;15.13;11.65;;;36.00;91.40;;;;;;5069577;28;20192;-76
2021/06/06 07:19:05;;;;;;;12.57;10.80;;;35.10;88.90;;;;;;5071268;28;20299;-76
2021/06/06 07:21:32;;;;;;;12.35;11.15;;;35.60;91.30;;;;;;5067706;28;20226;-75
2021/06/06 07:23:58;;;;;;;13.60;12.20;;;35.50;90.10;;;;;;5070581;28;20237;-76
2021/06/06 07:26:30;;;;;;;13.07;11.88;;;35.40;89.90;;;;;;5042043;28;20197;-76
2021/06/06 07:28:59;;;;;;;17.02;13.32;;;35.00;89.00;;;;;;5047917;28;20302;-75
2021/06/06 07:31:27;;;;;;;14.95;11.82;;;32.80;91.10;;;;;;5061369;28;20726;-75
2021/06/06 07:33:53;;;;;;;12.13;10.82;;;31.80;91.70;;;;;;5045246;28;20204;-75
2021/06/06 07:36:21;;;;;;;12.70;11.40;;;31.30;93.80;;;;;;5057236;28;20580;-76
2021/06/06 07:38:48;;;;;;;14.10;12.18;;;32.10;93.40;;;;;;5056634;28;20210;-77
2021/06/06 07:41:16;;;;;;;13.25;11.85;;;31.90;91.40;;;;;;5039758;28;20288;-77
2021/06/06 07:43:43;;;;;;;10.43;9.15;;;30.60;93.00;;;;;;5042034;28;20200;-76
2021/06/06 07:46:11;;;;;;;11.23;10.10;;;31.40;93.90;;;;;;5038144;28;20335;-76
2021/06/06 07:48:37;;;;;;;12.32;9.93;;;30.60;93.00;;;;;;5056316;28;20248;-76
2021/06/06 07:51:05;;;;;;;12.55;10.95;;;31.10;93.40;;;;;;5048426;28;20289;-77
2021/06/06 07:53:31;;;;;;;12.13;10.93;;;31.80;92.70;;;;;;5037229;28;20288;-77
2021/06/06 07:55:58;;;;;;;11.50;10.30;;;29.70;93.20;;;;;;5064661;28;20188;-76
2021/06/06 07:58:27;;;;;;;12.50;11.05;;;28.90;95.20;;;;;;5063420;28;20294;-77
2021/06/06 08:00:54;;;;;;;11.80;10.02;;;30.10;95.30;;;;;;5042536;28;20663;-77
2021/06/06 08:03:24;;;;;;;13.10;10.88;;;31.60;94.20;;;;;;5053698;28;20666;-78
2021/06/06 08:05:50;;;;;;;12.65;11.07;;;30.70;93.60;;;;;;5053293;28;20192;-76
2021/06/06 08:08:17;;;;;;;13.20;10.45;;;31.10;95.50;;;;;;5053918;28;20208;-77
2021/06/06 08:10:46;;;;;;;14.63;11.98;;;33.20;93.80;;;;;;5054708;28;20212;-77
2021/06/06 08:13:13;;;;;;;12.23;11.00;;;31.70;92.00;;;;;;5051549;28;20275;-77
2021/06/06 08:15:40;;;;;;;12.27;11.07;;;31.80;94.70;;;;;;5054800;28;20279;-76
2021/06/06 08:18:10;;;;;;;12.15;10.75;;;32.70;93.40;;;;;;5054998;28;20192;-76
2021/06/06 08:20:40;;;;;;;11.40;10.30;;;31.70;92.20;;;;;;5050560;28;20208;-77
2021/06/06 08:23:08;;;;;;;13.80;10.98;;;32.20;95.10;;;;;;5055281;28;20288;-76
2021/06/06 08:25:35;;;;;;;12.15;10.48;;;33.10;93.60;;;;;;5051546;28;20552;-77
2021/06/06 08:28:01;;;;;;;11.05;8.85;;;34.50;92.30;;;;;;5053861;28;20283;-77
2021/06/06 08:30:32;;;;;;;10.57;9.48;;;35.60;91.50;;;;;;5069514;28;20208;-77
2021/06/06 08:32:58;;;;;;;11.07;9.00;;;33.30;91.80;;;;;;5054070;28;20216;-77
2021/06/06 08:35:26;;;;;;;11.60;9.55;;;33.90;92.80;;;;;;5055607;28;20187;-78
2021/06/06 08:37:53;;;;;;;10.93;8.48;;;34.20;92.20;;;;;;5052792;28;20238;-77
2021/06/06 08:40:26;;;;;;;12.00;9.15;;;33.00;92.50;;;;;;5045946;28;20252;-76
2021/06/06 08:42:53;;;;;;;10.13;9.10;;;33.60;92.70;;;;;;5045640;28;20200;-76
2021/06/06 08:45:29;;;;;;;8.68;7.80;;;34.00;92.10;;;;;;5053392;28;20246;-77
2021/06/06 08:47:56;;;;;;;8.68;7.88;;;35.10;92.50;;;;;;5050695;28;20188;-77
2021/06/06 08:50:27;;;;;;;12.18;9.00;;;34.70;91.10;;;;;;5054009;28;20310;-78
2021/06/06 08:53:01;;;;;;;10.95;9.10;;;33.90;91.80;;;;;;5052987;28;20745;-76
2021/06/06 08:55:38;;;;;;;10.02;8.52;;;34.00;92.20;;;;;;5053676;28;20224;-80
2021/06/06 08:58:17;;;;;;;9.73;8.75;;;34.50;93.30;;;;;;5054650;28;20300;-78
2021/06/06 09:00:47;;;;;;;9.93;9.02;;;35.10;92.40;;;;;;5052137;28;20227;-77
2021/06/06 09:03:22;;;;;;;10.00;8.95;;;35.30;90.70;;;;;;5049874;28;20255;-77
2021/06/06 09:05:59;;;;;;;11.32;8.55;;;35.30;90.80;;;;;;5054135;28;20597;-76
2021/06/06 09:08:27;;;;;;;8.70;7.15;;;34.20;91.70;;;;;;5052112;28;20273;-76
2021/06/06 09:10:59;;;;;;;8.40;7.60;;;33.70;92.10;;;;;;5061241;28;20227;-76
2021/06/06 09:13:30;;;;;;;8.07;7.28;;;34.70;91.40;;;;;;5056926;28;20185;-77
2021/06/06 09:16:12;;;;;;;9.55;8.10;;;33.10;91.40;;;;;;5053925;28;20184;-76
2021/06/06 09:18:44;;;;;;;8.95;7.45;;;31.70;92.30;;;;;;5051939;28;20610;-77
2021/06/06 09:21:14;;;;;;;9.52;7.55;;;31.30;94.60;;;;;;5051142;28;20230;-77
2021/06/06 09:23:42;;;;;;;13.07;7.00;;;29.90;95.20;;;;;;5048823;28;20184;-77
2021/06/06 09:26:12;;;;;;;9.55;8.07;;;29.60;96.10;;;;;;5052754;28;20642;-76
2021/06/06 09:28:40;;;;;;;9.43;7.05;;;28.80;96.40;;;;;;5049047;28;20219;-76
2021/06/06 09:31:09;;;;;;;7.18;5.97;;;29.70;97.60;;;;;;5050485;28;20701;-76
2021/06/06 09:33:39;;;;;;;8.02;7.03;;;31.10;96.10;;;;;;5052040;28;20545;-76
2021/06/06 09:36:16;;;;;;;8.23;7.40;;;31.80;95.40;;;;;;5050441;28;20642;-77
2021/06/06 09:38:46;;;;;;;9.35;7.18;;;32.40;94.50;;;;;;5049888;28;20286;-76
2021/06/06 09:41:21;;;;;;;7.30;6.32;;;32.00;94.30;;;;;;5049443;28;20303;-76
2021/06/06 09:44:07;;;;;;;8.15;7.38;;;31.90;92.60;;;;;;5050709;28;20202;-76
2021/06/06 09:46:40;;;;;;;8.88;7.82;;;31.10;94.30;;;;;;5052611;28;20199;-76
2021/06/06 09:49:22;;;;;;;7.57;6.40;;;30.50;95.80;;;;;;5048372;28;20303;-77
2021/06/06 09:51:48;;;;;;;7.82;6.20;;;30.70;93.50;;;;;;5045430;28;20639;-77
2021/06/06 09:54:24;;;;;;;6.85;6.15;;;29.90;94.10;;;;;;5039713;28;20276;-77
2021/06/06 09:56:53;;;;;;;9.35;8.20;;;30.50;96.00;;;;;;5051581;28;20218;-76
2021/06/06 09:59:25;;;;;;;8.55;7.65;;;30.80;94.00;;;;;;5047507;28;20283;-76
2021/06/06 10:01:58;;;;;;;7.95;7.15;;;30.50;94.60;;;;;;5043728;28;20662;-75
2021/06/06 10:04:28;;;;;;;7.43;6.57;;;31.10;96.10;;;;;;5048391;28;20192;-76
2021/06/06 10:07:08;;;;;;;7.18;6.03;;;33.10;93.80;;;;;;5041040;28;20279;-76
2021/06/06 10:09:39;;;;;;;6.03;5.43;;;33.30;92.40;;;;;;5042522;28;20712;-76
2021/06/06 10:12:08;;;;;;;6.07;4.70;;;33.80;92.20;;;;;;5045799;28;20204;-76
2021/06/06 10:14:42;;;;;;;5.95;5.35;;;32.80;92.80;;;;;;5041927;28;20243;-76
2021/06/06 10:17:11;;;;;;;7.03;5.82;;;32.90;92.70;;;;;;5046280;28;20513;-76
2021/06/06 10:19:41;;;;;;;7.25;5.50;;;32.70;91.50;;;;;;5051614;28;20721;-76
2021/06/06 10:22:13;;;;;;;7.43;5.78;;;31.50;92.60;;;;;;5051473;28;20284;-75
2021/06/06 10:24:45;;;;;;;7.18;6.00;;;32.60;92.90;;;;;;5052035;28;20287;-76
2021/06/06 10:27:18;;;;;;;7.30;6.35;;;29.40;93.60;;;;;;5052782;28;20224;-75
2021/06/06 10:29:49;;;;;;;6.82;6.22;;;28.80;94.40;;;;;;5053083;28;20235;-76
2021/06/06 10:32:23;;;;;;;7.18;4.93;;;29.00;95.50;;;;;;5047288;28;20194;-76
2021/06/06 10:34:54;;;;;;;7.25;5.32;;;29.20;96.30;;;;;;5047243;28;20188;-76
2021/06/06 10:37:21;;;;;;;6.28;5.32;;;30.30;94.90;;;;;;5051698;28;20192;-75
2021/06/06 10:39:56;;;;;;;6.00;5.22;;;30.90;94.80;;;;;;5052395;28;20290;-76
2021/06/06 10:42:27;;;;;;;6.25;4.75;;;31.00;94.90;;;;;;5052692;28;20295;-76
2021/06/06 10:45:02;;;;;;;5.38;4.82;;;31.30;94.40;;;;;;5048755;28;20200;-75
2021/06/06 10:47:35;;;;;;;6.38;5.55;;;31.70;94.20;;;;;;5049545;28;20215;-76
2021/06/06 10:50:11;;;;;;;6.75;5.78;;;31.50;92.40;;;;;;5064411;28;20216;-76
2021/06/06 10:52:39;;;;;;;5.40;4.90;;;30.90;93.40;;;;;;5065067;28;20207;-77
2021/06/06 10:55:27;;;;;;;5.43;4.35;;;32.40;94.20;;;;;;5063550;28;20252;-77
2021/06/06 10:57:53;;;;;;;6.35;5.15;;;29.40;92.80;;;;;;5050412;28;20196;-76
2021/06/06 11:00:30;;;;;;;6.75;5.82;;;26.80;96.50;;;;;;5050195;28;20283;-76
2021/06/06 11:03:01;;;;;;;6.78;5.75;;;26.40;97.60;;;;;;5035474;28;20260;-76
2021/06/06 11:05:46;;;;;;;8.80;6.05;;;26.60;96.60;;;;;;5044497;28;20342;-77
2021/06/06 11:08:38;;;;;;;6.05;5.25;;;27.50;96.90;;;;;;5043509;28;20285;-76
2021/06/06 11:11:21;;;;;;;6.40;5.18;;;28.70;95.40;;;;;;5043135;28;20278;-76
2021/06/06 11:13:51;;;;;;;6.13;4.72;;;28.30;95.70;;;;;;5044177;28;20517;-76
2021/06/06 11:16:33;;;;;;;5.63;4.93;;;27.40;98.00;;;;;;5044640;28;20204;-76
2021/06/06 11:19:02;;;;;;;5.50;4.63;;;27.90;97.20;;;;;;5043463;28;20197;-77
2021/06/06 11:21:36;;;;;;;5.07;4.30;;;29.40;95.50;;;;;;5043023;28;20287;-76
2021/06/06 11:24:07;;;;;;;4.45;4.03;;;29.30;95.10;;;;;;5045206;28;20297;-78
2021/06/06 11:26:42;;;;;;;6.25;4.30;;;29.20;96.20;;;;;;5050467;28;20347;-77
2021/06/06 11:29:18;;;;;;;4.80;4.28;;;30.00;96.50;;;;;;5046594;28;20262;-77
2021/06/06 11:32:01;;;;;;;7.35;4.68;;;31.60;95.70;;;;;;5035308;28;20212;-78
2021/06/06 11:34:32;;;;;;;6.82;4.85;;;32.30;94.00;;;;;;5042077;28;20290;-77
2021/06/06 11:37:07;;;;;;;3.90;3.42;;;32.80;91.80;;;;;;5037511;28;20217;-76
2021/06/06 11:39:38;;;;;;;4.20;2.83;;;31.20;92.70;;;;;;5042162;28;20191;-77
2021/06/06 11:42:17;;;;;;;4.53;3.67;;;31.60;93.10;;;;;;5043896;28;20649;-76
2021/06/06 11:44:47;;;;;;;4.38;3.33;;;31.00;92.10;;;;;;5050186;28;20180;-77
2021/06/06 11:47:20;;;;;;;4.00;3.60;;;30.80;93.60;;;;;;5051559;28;20192;-76
2021/06/06 11:49:54;;;;;;;6.95;4.45;;;31.10;92.30;;;;;;5049163;28;20312;-78
2021/06/06 11:52:41;;;;;;;4.78;4.25;;;31.50;91.90;;;;;;5049802;28;20281;-76
2021/06/06 11:55:14;;;;;;;3.42;3.13;;;29.60;91.40;;;;;;5049571;28;20192;-76
2021/06/06 11:57:49;;;;;;;3.75;2.90;;;29.70;93.40;;;;;;5056248;28;20216;-77
2021/06/06 12:00:22;;;;;;;5.63;3.30;;;30.50;92.50;;;;;;5054934;28;20191;-77
2021/06/06 12:02:49;;;;;;;2.92;2.63;;;29.90;93.10;;;;;;5055301;28;20192;-77
2021/06/06 12:05:19;;;;;;;3.70;2.65;;;30.90;92.20;;;;;;5055019;28;20702;-77
2021/06/06 12:07:49;;;;;;;1.60;1.50;;;30.30;91.80;;;;;;5055444;28;20570;-76
2021/06/06 12:10:30;;;;;;;2.13;1.88;;;31.30;91.20;;;;;;5051911;28;20736;-77
2021/06/06 12:13:02;;;;;;;3.78;2.20;;;29.50;90.90;;;;;;5051549;28;20369;-77
2021/06/06 12:15:32;;;;;;;4.13;3.20;;;28.70;91.80;;;;;;5059488;28;20235;-78
2021/06/06 12:18:12;;;;;;;3.45;2.35;;;27.70;92.50;;;;;;5059924;28;20192;-76
2021/06/06 12:20:49;;;;;;;3.53;2.90;;;26.80;95.10;;;;;;5047944;28;20192;-77
2021/06/06 12:23:16;;;;;;;3.15;2.10;;;27.10;94.10;;;;;;5058325;28;20202;-77
2021/06/06 12:25:42;;;;;;;2.28;2.08;;;27.30;94.60;;;;;;5048324;28;20251;-78
2021/06/06 12:28:18;;;;;;;3.00;2.40;;;28.10;94.60;;;;;;5057741;28;20337;-78
2021/06/06 12:30:55;;;;;;;2.25;2.05;;;29.00;94.30;;;;;;5063829;28;20254;-76
2021/06/06 12:33:29;;;;;;;2.72;2.10;;;27.80;92.80;;;;;;5055841;28;20273;-77
2021/06/06 12:36:04;;;;;;;2.58;2.25;;;27.90;94.60;;;;;;5050341;28;20242;-77
2021/06/06 12:38:31;;;;;;;3.50;2.13;;;26.80;93.20;;;;;;5042493;28;20274;-77
2021/06/06 12:41:00;;;;;;;4.47;2.88;;;27.50;97.10;;;;;;5041258;28;20224;-78
2021/06/06 12:43:30;;;;;;;3.47;2.33;;;27.60;94.10;;;;;;5055876;28;20231;-78
2021/06/06 12:46:03;;;;;;;4.38;2.67;;;27.40;94.40;;;;;;5057529;28;20660;-77